createdAt,value
2017-09-02T00:00:22.533Z,0
2017-09-02T00:01:22.572Z,0
2017-09-02T00:02:37.201Z,0
2017-09-02T00:03:22.666Z,0
2017-09-02T00:04:37.233Z,0
2017-09-02T00:05:22.336Z,0
2017-09-02T00:06:22.354Z,0
2017-09-02T00:07:22.675Z,0
2017-09-02T00:08:37.312Z,0
2017-09-02T00:09:22.442Z,0
2017-09-02T00:10:22.774Z,0
2017-09-02T00:11:22.796Z,0
2017-09-02T00:12:37.401Z,0
2017-09-02T00:13:22.828Z,0
2017-09-02T00:14:22.864Z,0
2017-09-02T00:16:22.596Z,0
2017-09-02T00:17:22.920Z,0
2017-09-02T00:18:22.944Z,0
2017-09-02T00:19:22.975Z,0
2017-09-02T00:22:23.039Z,0
2017-09-02T00:23:37.675Z,0
2017-09-02T00:24:37.704Z,0
2017-09-02T00:25:23.082Z,0
2017-09-02T00:26:23.131Z,0
2017-09-02T00:27:23.150Z,0
2017-09-02T00:28:23.194Z,0
2017-09-02T00:29:23.189Z,0
2017-09-02T00:30:23.229Z,0
2017-09-02T00:31:23.259Z,0
2017-09-02T00:32:23.255Z,0
2017-09-02T00:33:22.986Z,0
2017-09-02T00:34:23.329Z,0
2017-09-02T00:35:37.648Z,0
2017-09-02T00:36:23.359Z,0
2017-09-02T00:37:23.377Z,0
2017-09-02T00:38:23.411Z,0
2017-09-02T00:39:52.656Z,0
2017-09-02T00:40:23.148Z,0
2017-09-02T00:41:23.484Z,0
2017-09-02T00:42:23.513Z,0
2017-09-02T00:43:23.518Z,0
2017-09-02T00:44:23.543Z,0
2017-09-02T00:45:23.264Z,0
2017-09-02T00:46:23.297Z,0
2017-09-02T00:47:38.234Z,0
2017-09-02T00:48:23.623Z,0
2017-09-02T00:49:23.657Z,0
2017-09-02T00:50:38.278Z,0
2017-09-02T00:51:38.000Z,0
2017-09-02T00:52:23.758Z,0
2017-09-02T00:53:23.745Z,0
2017-09-02T00:54:38.399Z,0
2017-09-02T00:55:23.481Z,0
2017-09-02T00:56:23.829Z,0
2017-09-02T00:57:23.809Z,0
2017-09-02T00:58:23.880Z,0
2017-09-02T00:59:23.886Z,0
2017-09-02T01:00:23.952Z,0
2017-09-02T01:01:23.599Z,0
2017-09-02T01:02:23.942Z,0
2017-09-02T01:03:23.978Z,0
2017-09-02T01:04:24.011Z,0
2017-09-02T01:05:24.044Z,0
2017-09-02T01:06:23.749Z,0
2017-09-02T01:07:24.070Z,0
2017-09-02T01:08:24.108Z,0
2017-09-02T01:09:38.726Z,0
2017-09-02T01:10:24.157Z,0
2017-09-02T01:11:53.052Z,0
2017-09-02T01:12:24.194Z,0
2017-09-02T01:13:24.222Z,0
2017-09-02T01:14:38.852Z,0
2017-09-02T01:16:24.259Z,0
2017-09-02T01:17:24.008Z,0
2017-09-02T01:18:38.941Z,0
2017-09-02T01:19:38.946Z,0
2017-09-02T01:21:24.386Z,0
2017-09-02T01:22:24.415Z,0
2017-09-02T01:23:24.119Z,0
2017-09-02T01:24:24.466Z,0
2017-09-02T01:25:24.486Z,0
2017-09-02T01:26:24.486Z,0
2017-09-02T01:27:53.445Z,0
2017-09-02T01:28:38.844Z,0
2017-09-02T01:29:24.570Z,0
2017-09-02T01:30:24.597Z,0
2017-09-02T01:31:24.615Z,0
2017-09-02T01:32:24.628Z,0
2017-09-02T01:33:24.357Z,0
2017-09-02T01:34:24.343Z,0
2017-09-02T01:35:24.397Z,0
2017-09-02T01:36:24.710Z,0
2017-09-02T01:37:24.747Z,0
2017-09-02T01:38:24.775Z,0
2017-09-02T01:39:24.802Z,0
2017-09-02T01:40:39.415Z,0
2017-09-02T01:41:24.844Z,0
2017-09-02T01:42:24.838Z,0
2017-09-02T01:43:39.192Z,0
2017-09-02T01:44:24.927Z,0
2017-09-02T01:45:39.537Z,0
2017-09-02T01:46:24.644Z,0
2017-09-02T01:47:24.658Z,0
2017-09-02T01:48:39.610Z,0
2017-09-02T01:49:24.694Z,0
2017-09-02T01:50:25.028Z,0
2017-09-02T01:51:25.058Z,0
2017-09-02T01:52:25.095Z,0
2017-09-02T01:53:24.813Z,0
2017-09-02T01:54:25.134Z,0
2017-09-02T01:55:25.143Z,0
2017-09-02T01:56:24.876Z,0
2017-09-02T01:58:24.916Z,0
2017-09-02T01:59:39.870Z,0
2017-09-02T02:00:24.966Z,0
2017-09-02T02:01:24.987Z,0
2017-09-02T02:02:39.896Z,0
2017-09-02T02:03:25.042Z,0
2017-09-02T02:04:25.041Z,0
2017-09-02T02:05:25.074Z,0
2017-09-02T02:06:25.391Z,0
2017-09-02T02:07:25.456Z,0
2017-09-02T02:09:25.183Z,0
2017-09-02T02:10:25.497Z,0
2017-09-02T02:11:24.908Z,0
2017-09-02T02:12:25.218Z,0
2017-09-02T02:13:25.245Z,0
2017-09-02T02:14:40.193Z,0
2017-09-02T02:15:25.619Z,0
2017-09-02T02:16:25.642Z,0
2017-09-02T02:17:25.323Z,0
2017-09-02T02:18:25.680Z,0
2017-09-02T02:19:25.378Z,0
2017-09-02T02:20:25.740Z,0
2017-09-02T02:21:25.727Z,0
2017-09-02T02:22:25.790Z,0
2017-09-02T02:23:40.405Z,0
2017-09-02T02:24:25.817Z,0
2017-09-02T02:25:25.849Z,0
2017-09-02T02:27:25.894Z,0
2017-09-02T02:28:25.578Z,0
2017-09-02T02:29:40.542Z,0
2017-09-02T02:30:25.957Z,0
2017-09-02T02:31:26.004Z,0
2017-09-02T02:32:26.009Z,0
2017-09-02T02:33:55.237Z,0
2017-09-02T02:34:26.036Z,0
2017-09-02T02:35:40.684Z,0
2017-09-02T02:37:40.726Z,0
2017-09-02T02:38:25.819Z,0
2017-09-02T02:39:25.850Z,0
2017-09-02T02:40:25.870Z,0
2017-09-02T02:41:26.169Z,0
2017-09-02T02:42:26.244Z,0
2017-09-02T02:43:26.212Z,0
2017-09-02T02:44:26.291Z,0
2017-09-02T02:45:40.894Z,0
2017-09-02T02:46:40.920Z,0
2017-09-02T02:47:40.948Z,0
2017-09-02T02:48:26.339Z,0
2017-09-02T02:49:26.070Z,0
2017-09-02T02:50:26.381Z,0
2017-09-02T02:51:26.426Z,0
2017-09-02T02:52:41.042Z,0
2017-09-02T02:53:26.468Z,0
2017-09-02T02:54:26.172Z,0
2017-09-02T02:55:26.188Z,0
2017-09-02T02:56:25.902Z,0
2017-09-02T02:57:26.558Z,0
2017-09-02T02:59:26.270Z,0
2017-09-02T03:01:26.311Z,0
2017-09-02T03:02:41.265Z,0
2017-09-02T03:04:41.332Z,0
2017-09-02T03:07:26.744Z,0
2017-09-02T03:08:26.477Z,0
2017-09-02T03:09:26.514Z,0
2017-09-02T03:11:26.573Z,0
2017-09-02T03:13:26.583Z,0
2017-09-02T03:14:41.561Z,0
2017-09-02T03:15:26.643Z,0
2017-09-02T03:17:26.696Z,0
2017-09-02T03:18:56.227Z,0
2017-09-02T03:19:26.712Z,0
2017-09-02T03:20:41.687Z,0
2017-09-02T03:21:26.467Z,0
2017-09-02T03:22:27.136Z,0
2017-09-02T03:23:27.110Z,0
2017-09-02T03:24:27.166Z,0
2017-09-02T03:25:26.860Z,0
2017-09-02T03:26:27.207Z,0
2017-09-02T03:27:41.855Z,0
2017-09-02T03:28:26.908Z,0
2017-09-02T03:29:27.285Z,0
2017-09-02T03:30:27.000Z,0
2017-09-02T03:31:27.308Z,0
2017-09-02T03:33:27.037Z,0
2017-09-02T03:34:41.983Z,0
2017-09-02T03:35:27.408Z,0
2017-09-02T03:36:27.414Z,0
2017-09-02T03:37:26.802Z,0
2017-09-02T03:38:26.865Z,0
2017-09-02T03:39:42.100Z,0
2017-09-02T03:40:27.514Z,0
2017-09-02T03:41:26.905Z,0
2017-09-02T03:42:27.536Z,0
2017-09-02T03:43:27.591Z,0
2017-09-02T03:44:41.898Z,0
2017-09-02T03:45:27.314Z,0
2017-09-02T03:46:27.635Z,0
2017-09-02T03:47:27.367Z,0
2017-09-02T03:48:27.094Z,0
2017-09-02T03:49:42.306Z,0
2017-09-02T03:50:27.739Z,0
2017-09-02T03:52:27.763Z,0
2017-09-02T03:53:27.506Z,0
2017-09-02T03:54:27.483Z,0
2017-09-02T03:55:27.547Z,0
2017-09-02T03:56:27.245Z,0
2017-09-02T03:57:27.579Z,0
2017-09-02T03:58:27.577Z,0
2017-09-02T03:59:27.609Z,0
2017-09-02T04:00:27.943Z,0
2017-09-02T04:01:42.594Z,0
2017-09-02T04:02:27.671Z,0
2017-09-02T04:03:27.674Z,0
2017-09-02T04:04:28.041Z,0
2017-09-02T04:05:28.048Z,0
2017-09-02T04:06:42.695Z,0
2017-09-02T04:07:27.798Z,0
2017-09-02T04:08:42.756Z,0
2017-09-02T04:09:28.167Z,0
2017-09-02T04:10:28.154Z,0
2017-09-02T04:11:27.587Z,0
2017-09-02T04:12:27.593Z,0
2017-09-02T04:13:28.262Z,0
2017-09-02T04:14:42.863Z,0
2017-09-02T04:15:42.913Z,0
2017-09-02T04:17:28.330Z,5
2017-09-02T04:18:28.036Z,5
2017-09-02T04:19:42.977Z,5
2017-09-02T04:20:28.070Z,5
2017-09-02T04:21:43.029Z,5
2017-09-02T04:22:28.115Z,5
2017-09-02T04:24:43.118Z,10
2017-09-02T04:25:28.191Z,10
2017-09-02T04:26:28.533Z,10
2017-09-02T04:27:28.215Z,10
2017-09-02T04:28:43.176Z,10
2017-09-02T04:29:28.581Z,10
2017-09-02T04:30:42.909Z,10
2017-09-02T04:31:43.262Z,15
2017-09-02T04:32:28.326Z,15
2017-09-02T04:33:28.390Z,15
2017-09-02T04:34:28.356Z,15
2017-09-02T04:35:28.737Z,15
2017-09-02T04:37:43.346Z,20
2017-09-02T04:38:28.779Z,20
2017-09-02T04:39:28.190Z,20
2017-09-02T04:40:28.209Z,25
2017-09-02T04:41:43.157Z,25
2017-09-02T04:42:28.873Z,30
2017-09-02T04:43:28.873Z,30
2017-09-02T04:44:28.948Z,35
2017-09-02T04:45:28.931Z,35
2017-09-02T04:46:28.971Z,40
2017-09-02T04:47:28.991Z,40
2017-09-02T04:48:28.693Z,45
2017-09-02T04:49:29.049Z,50
2017-09-02T04:50:28.798Z,50
2017-09-02T04:51:29.085Z,55
2017-09-02T04:52:28.782Z,55
2017-09-02T04:53:43.705Z,75
2017-09-02T04:54:28.858Z,95
2017-09-02T04:55:29.141Z,110
2017-09-02T04:56:29.208Z,85
2017-09-02T04:57:28.876Z,75
2017-09-02T04:58:43.831Z,75
2017-09-02T04:59:29.243Z,75
2017-09-02T05:01:28.963Z,85
2017-09-02T05:02:29.322Z,85
2017-09-02T05:03:43.979Z,90
2017-09-02T05:04:29.045Z,95
2017-09-02T05:06:29.400Z,100
2017-09-02T05:07:29.428Z,105
2017-09-02T05:08:44.059Z,125
2017-09-02T05:09:58.691Z,110
2017-09-02T05:10:29.480Z,110
2017-09-02T05:11:29.598Z,115
2017-09-02T05:12:43.581Z,115
2017-09-02T05:13:29.219Z,120
2017-09-02T05:14:29.281Z,120
2017-09-02T05:15:29.673Z,125
2017-09-02T05:16:29.630Z,125
2017-09-02T05:18:43.971Z,145
2017-09-02T05:19:29.381Z,165
2017-09-02T05:20:29.087Z,170
2017-09-02T05:21:29.728Z,150
2017-09-02T05:22:29.458Z,305
2017-09-02T05:23:29.769Z,265
2017-09-02T05:24:44.109Z,150
2017-09-02T05:25:44.133Z,140
2017-09-02T05:26:29.854Z,135
2017-09-02T05:27:44.164Z,135
2017-09-02T05:28:29.880Z,135
2017-09-02T05:29:44.531Z,135
2017-09-02T05:30:29.644Z,140
2017-09-02T05:31:29.661Z,140
2017-09-02T05:32:30.005Z,140
2017-09-02T05:33:30.014Z,140
2017-09-02T05:34:44.681Z,150
2017-09-02T05:35:29.719Z,150
2017-09-02T05:36:29.772Z,175
2017-09-02T05:37:29.785Z,160
2017-09-02T05:39:30.126Z,375
2017-09-02T05:40:29.864Z,470
2017-09-02T05:41:29.873Z,440
2017-09-02T05:42:29.286Z,295
2017-09-02T05:43:29.946Z,210
2017-09-02T05:44:29.944Z,195
2017-09-02T05:45:29.982Z,195
2017-09-02T05:46:44.914Z,235
2017-09-02T05:47:30.027Z,200
2017-09-02T05:48:30.046Z,170
2017-09-02T05:49:30.364Z,165
2017-09-02T05:50:30.433Z,165
2017-09-02T05:51:45.016Z,270
2017-09-02T05:52:29.850Z,515
2017-09-02T05:53:30.151Z,785
2017-09-02T05:54:30.196Z,830
2017-09-02T05:55:30.530Z,860
2017-09-02T05:56:45.214Z,890
2017-09-02T05:57:30.585Z,875
2017-09-02T05:59:30.312Z,860
2017-09-02T06:00:30.013Z,855
2017-09-02T06:02:30.070Z,855
2017-09-02T06:03:30.758Z,835
2017-09-02T06:04:59.984Z,835
2017-09-02T06:05:30.771Z,855
2017-09-02T06:06:30.501Z,870
2017-09-02T06:07:30.521Z,915
2017-09-02T06:08:45.174Z,970
2017-09-02T06:09:30.255Z,945
2017-09-02T06:10:30.617Z,930
2017-09-02T06:11:30.620Z,905
2017-09-02T06:12:45.294Z,890
2017-09-02T06:13:30.366Z,875
2017-09-02T06:14:30.735Z,835
2017-09-02T06:15:45.655Z,810
2017-09-02T06:16:30.478Z,805
2017-09-02T06:17:45.417Z,780
2017-09-02T06:18:31.152Z,760
2017-09-02T06:19:31.196Z,720
2017-09-02T06:20:45.799Z,675
2017-09-02T06:21:30.624Z,670
2017-09-02T06:22:45.575Z,640
2017-09-02T06:23:45.915Z,620
2017-09-02T06:24:31.018Z,605
2017-09-02T06:25:31.067Z,595
2017-09-02T06:26:31.101Z,570
2017-09-02T06:27:30.500Z,565
2017-09-02T06:28:46.078Z,565
2017-09-02T06:29:46.075Z,560
2017-09-02T06:30:45.829Z,540
2017-09-02T06:31:31.558Z,530
2017-09-02T06:32:31.640Z,535
2017-09-02T06:33:31.332Z,530
2017-09-02T06:34:31.637Z,525
2017-09-02T06:35:46.309Z,540
2017-09-02T06:36:46.326Z,560
2017-09-02T06:37:31.445Z,570
2017-09-02T06:38:31.469Z,605
2017-09-02T06:39:31.820Z,675
2017-09-02T06:40:31.867Z,1035
2017-09-02T06:41:31.888Z,1990
2017-09-02T06:42:31.911Z,1945
2017-09-02T06:43:31.635Z,1480
2017-09-02T06:44:46.596Z,1340
2017-09-02T06:45:46.650Z,1430
2017-09-02T06:46:32.044Z,1555
2017-09-02T06:47:46.706Z,1345
2017-09-02T06:49:31.827Z,1350
2017-09-02T06:50:32.178Z,1415
2017-09-02T06:51:32.223Z,1430
2017-09-02T06:52:31.934Z,1440
2017-09-02T06:53:31.998Z,1345
2017-09-02T06:54:46.632Z,1265
2017-09-02T06:55:32.356Z,1260
2017-09-02T06:56:32.395Z,1275
2017-09-02T06:57:32.418Z,1265
2017-09-02T06:58:47.090Z,1280
2017-09-02T07:00:01.709Z,1190
2017-09-02T07:00:32.542Z,860
2017-09-02T07:01:32.566Z,935
2017-09-02T07:02:32.293Z,390
2017-09-02T07:03:32.321Z,1240
2017-09-02T07:04:46.969Z,1270
2017-09-02T07:05:32.699Z,1255
2017-09-02T07:06:32.426Z,1250
2017-09-02T07:07:47.367Z,1215
2017-09-02T07:08:47.401Z,1255
2017-09-02T07:09:32.847Z,1260
2017-09-02T07:10:32.544Z,1220
2017-09-02T07:11:32.923Z,1270
2017-09-02T07:12:32.605Z,1265
2017-09-02T07:13:47.583Z,1290
2017-09-02T07:14:32.976Z,1315
2017-09-02T07:15:33.029Z,1280
2017-09-02T07:16:32.747Z,1270
2017-09-02T07:17:32.492Z,1300
2017-09-02T07:18:47.769Z,1265
2017-09-02T07:19:32.860Z,1205
2017-09-02T07:20:32.871Z,1180
2017-09-02T07:21:47.844Z,1190
2017-09-02T07:22:32.972Z,1165
2017-09-02T07:23:32.982Z,1135
2017-09-02T07:24:33.050Z,1150
2017-09-02T07:25:33.066Z,1125
2017-09-02T07:26:48.029Z,1115
2017-09-02T07:27:48.085Z,1090
2017-09-02T07:28:33.456Z,1110
2017-09-02T07:29:33.210Z,1115
2017-09-02T07:30:47.877Z,1090
2017-09-02T07:31:48.204Z,1095
2017-09-02T07:32:33.292Z,1105
2017-09-02T07:33:47.333Z,1050
2017-09-02T07:34:33.080Z,1055
2017-09-02T07:35:33.416Z,1115
2017-09-02T07:36:33.769Z,1145
2017-09-02T07:37:33.795Z,1110
2017-09-02T07:38:33.800Z,1095
2017-09-02T07:39:33.875Z,1115
2017-09-02T07:40:33.881Z,1120
2017-09-02T07:42:33.350Z,1115
2017-09-02T07:43:34.013Z,1140
2017-09-02T07:44:34.038Z,1150
2017-09-02T07:45:34.049Z,1105
2017-09-02T07:46:33.797Z,1045
2017-09-02T07:48:33.871Z,1030
2017-09-02T07:49:34.194Z,985
2017-09-02T07:51:34.283Z,985
2017-09-02T07:52:48.612Z,935
2017-09-02T07:53:48.970Z,930
2017-09-02T07:54:34.047Z,945
2017-09-02T07:55:48.413Z,970
2017-09-02T07:56:34.463Z,960
2017-09-02T07:57:34.146Z,945
2017-09-02T07:58:34.199Z,945
2017-09-02T07:59:34.566Z,940
2017-09-02T08:00:34.264Z,935
2017-09-02T08:01:34.639Z,930
2017-09-02T08:02:49.246Z,940
2017-09-02T08:03:49.306Z,945
2017-09-02T08:04:34.708Z,930
2017-09-02T08:05:34.766Z,850
2017-09-02T08:07:34.819Z,930
2017-09-02T08:08:34.867Z,845
2017-09-02T08:09:34.895Z,920
2017-09-02T08:10:49.545Z,875
2017-09-02T08:11:34.946Z,855
2017-09-02T08:12:49.611Z,820
2017-09-02T08:13:35.044Z,825
2017-09-02T08:14:49.046Z,830
2017-09-02T08:15:35.092Z,810
2017-09-02T08:16:49.423Z,770
2017-09-02T08:17:34.866Z,775
2017-09-02T08:18:34.559Z,765
2017-09-02T08:19:49.861Z,780
2017-09-02T08:20:34.955Z,770
2017-09-02T08:21:34.981Z,725
2017-09-02T08:22:35.313Z,720
2017-09-02T08:23:35.039Z,710
2017-09-02T08:24:34.465Z,690
2017-09-02T08:25:35.122Z,700
2017-09-02T08:26:35.150Z,690
2017-09-02T08:27:49.804Z,675
2017-09-02T08:28:35.516Z,670
2017-09-02T08:29:35.576Z,660
2017-09-02T08:30:35.284Z,650
2017-09-02T08:31:35.630Z,645
2017-09-02T08:32:35.670Z,625
2017-09-02T08:33:35.359Z,620
2017-09-02T08:34:50.338Z,290
2017-09-02T08:35:35.755Z,605
2017-09-02T08:36:35.493Z,605
2017-09-02T08:37:35.505Z,565
2017-09-02T08:38:35.562Z,555
2017-09-02T08:39:35.615Z,565
2017-09-02T08:40:35.918Z,555
2017-09-02T08:41:36.003Z,555
2017-09-02T08:42:35.683Z,550
2017-09-02T08:43:36.021Z,545
2017-09-02T08:45:35.485Z,565
2017-09-02T08:46:35.523Z,570
2017-09-02T08:47:50.456Z,565
2017-09-02T08:49:36.230Z,560
2017-09-02T08:50:35.942Z,545
2017-09-02T08:51:35.972Z,550
2017-09-02T08:52:50.628Z,340
2017-09-02T08:53:50.660Z,185
2017-09-02T08:54:35.762Z,185
2017-09-02T08:55:50.731Z,190
2017-09-02T08:56:36.141Z,200
2017-09-02T08:58:36.219Z,515
2017-09-02T08:59:35.924Z,510
2017-09-02T09:01:51.241Z,500
2017-09-02T09:02:36.638Z,495
2017-09-02T09:03:36.696Z,500
2017-09-02T09:04:36.416Z,520
2017-09-02T09:05:36.748Z,520
2017-09-02T09:06:51.382Z,520
2017-09-02T09:07:36.788Z,525
2017-09-02T09:08:36.872Z,200
2017-09-02T09:09:36.880Z,185
2017-09-02T09:10:51.528Z,185
2017-09-02T09:11:36.947Z,185
2017-09-02T09:12:36.671Z,510
2017-09-02T09:13:36.677Z,500
2017-09-02T09:14:37.031Z,500
2017-09-02T09:15:36.748Z,475
2017-09-02T09:16:37.100Z,175
2017-09-02T09:17:51.742Z,190
2017-09-02T09:18:37.145Z,185
2017-09-02T09:19:36.881Z,170
2017-09-02T09:20:37.220Z,175
2017-09-02T09:22:51.909Z,185
2017-09-02T09:23:37.294Z,195
2017-09-02T09:24:37.015Z,380
2017-09-02T09:25:37.060Z,375
2017-09-02T09:26:37.085Z,350
2017-09-02T09:27:37.121Z,365
2017-09-02T09:28:37.433Z,200
2017-09-02T09:29:37.500Z,365
2017-09-02T09:30:52.118Z,360
2017-09-02T09:32:37.577Z,345
2017-09-02T09:33:37.277Z,345
2017-09-02T09:34:37.658Z,345
2017-09-02T09:35:37.657Z,350
2017-09-02T09:37:52.321Z,345
2017-09-02T09:38:52.348Z,350
2017-09-02T09:39:36.846Z,350
2017-09-02T09:42:37.884Z,285
2017-09-02T09:43:52.515Z,300
2017-09-02T09:44:37.923Z,350
2017-09-02T09:45:37.965Z,350
2017-09-02T09:46:37.700Z,345
2017-09-02T09:47:38.023Z,345
2017-09-02T09:48:38.076Z,340
2017-09-02T09:49:38.105Z,340
2017-09-02T09:50:38.105Z,335
2017-09-02T09:51:38.168Z,245
2017-09-02T09:52:38.181Z,270
2017-09-02T09:53:37.581Z,315
2017-09-02T09:54:52.533Z,315
2017-09-02T09:55:52.889Z,285
2017-09-02T09:56:52.931Z,260
2017-09-02T09:57:38.003Z,295
2017-09-02T09:58:38.395Z,310
2017-09-02T09:59:38.084Z,310
2017-09-02T10:00:38.646Z,175
2017-09-02T10:01:38.423Z,310
2017-09-02T10:02:53.104Z,310
2017-09-02T10:03:38.247Z,305
2017-09-02T10:04:38.558Z,305
2017-09-02T10:05:53.205Z,305
2017-09-02T10:06:38.597Z,305
2017-09-02T10:07:38.356Z,310
2017-09-02T10:08:38.713Z,290
2017-09-02T10:09:53.322Z,155
2017-09-02T10:10:38.720Z,155
2017-09-02T10:11:38.454Z,295
2017-09-02T10:12:53.428Z,325
2017-09-02T10:13:38.854Z,325
2017-09-02T10:14:53.487Z,170
2017-09-02T10:15:38.558Z,260
2017-09-02T10:16:53.525Z,155
2017-09-02T10:17:38.335Z,160
2017-09-02T10:18:38.722Z,160
2017-09-02T10:19:53.285Z,315
2017-09-02T10:20:38.772Z,320
2017-09-02T10:21:39.089Z,315
2017-09-02T10:22:39.110Z,310
2017-09-02T10:23:53.723Z,305
2017-09-02T10:24:38.860Z,305
2017-09-02T10:26:38.577Z,300
2017-09-02T10:27:39.258Z,295
2017-09-02T10:28:39.296Z,295
2017-09-02T10:29:39.296Z,305
2017-09-02T10:30:39.021Z,290
2017-09-02T10:31:38.425Z,285
2017-09-02T10:32:39.427Z,280
2017-09-02T10:33:54.014Z,280
2017-09-02T10:34:39.121Z,280
2017-09-02T10:35:39.452Z,275
2017-09-02T10:36:39.466Z,270
2017-09-02T10:37:54.146Z,270
2017-09-02T10:38:39.582Z,275
2017-09-02T10:39:54.219Z,240
2017-09-02T10:40:39.621Z,150
2017-09-02T10:41:54.290Z,155
2017-09-02T10:42:39.035Z,155
2017-09-02T10:44:54.041Z,140
2017-09-02T10:45:39.459Z,145
2017-09-02T10:46:39.456Z,150
2017-09-02T10:47:39.823Z,160
2017-09-02T10:48:39.520Z,165
2017-09-02T10:49:39.573Z,170
2017-09-02T10:50:39.655Z,165
2017-09-02T10:51:39.945Z,165
2017-09-02T10:52:39.630Z,170
2017-09-02T10:53:39.972Z,170
2017-09-02T10:54:40.023Z,170
2017-09-02T10:55:40.048Z,165
2017-09-02T10:56:40.089Z,165
2017-09-02T10:57:54.708Z,170
2017-09-02T11:00:54.773Z,180
2017-09-02T11:01:39.886Z,180
2017-09-02T11:02:40.227Z,195
2017-09-02T11:04:40.284Z,160
2017-09-02T11:05:39.988Z,160
2017-09-02T11:06:40.318Z,160
2017-09-02T11:07:40.362Z,160
2017-09-02T11:08:40.376Z,160
2017-09-02T11:09:40.431Z,160
2017-09-02T11:10:55.064Z,165
2017-09-02T11:11:40.494Z,165
2017-09-02T11:12:40.514Z,170
2017-09-02T11:13:54.849Z,175
2017-09-02T11:15:40.603Z,195
2017-09-02T11:16:40.275Z,205
2017-09-02T11:17:40.325Z,205
2017-09-02T11:18:40.353Z,195
2017-09-02T11:19:40.707Z,210
2017-09-02T11:20:55.351Z,190
2017-09-02T11:21:40.722Z,185
2017-09-02T11:22:40.843Z,180
2017-09-02T11:23:40.842Z,190
2017-09-02T11:24:40.519Z,220
2017-09-02T11:25:40.551Z,180
2017-09-02T11:26:55.519Z,175
2017-09-02T11:27:40.614Z,175
2017-09-02T11:28:40.916Z,175
2017-09-02T11:30:10.200Z,175
2017-09-02T11:30:40.720Z,175
2017-09-02T11:31:40.715Z,175
2017-09-02T11:33:55.683Z,215
2017-09-02T11:34:40.802Z,225
2017-09-02T11:36:41.159Z,220
2017-09-02T11:37:41.202Z,205
2017-09-02T11:38:40.902Z,220
2017-09-02T11:39:41.251Z,220
2017-09-02T11:40:40.948Z,225
2017-09-02T11:41:55.891Z,205
2017-09-02T11:42:41.328Z,225
2017-09-02T11:43:55.653Z,225
2017-09-02T11:44:56.001Z,195
2017-09-02T11:45:41.398Z,185
2017-09-02T11:46:41.438Z,175
2017-09-02T11:47:56.056Z,180
2017-09-02T11:48:40.853Z,185
2017-09-02T11:49:41.501Z,185
2017-09-02T11:51:41.597Z,185
2017-09-02T11:52:41.288Z,185
2017-09-02T11:53:41.301Z,175
2017-09-02T11:54:41.313Z,170
2017-09-02T11:55:41.361Z,170
2017-09-02T11:56:55.693Z,175
2017-09-02T11:57:56.338Z,185
2017-09-02T11:58:41.140Z,190
2017-09-02T11:59:41.771Z,195
2017-09-02T12:00:41.510Z,190
2017-09-02T12:01:56.493Z,185
2017-09-02T12:02:41.865Z,185
2017-09-02T12:03:41.872Z,185
2017-09-02T12:04:56.210Z,185
2017-09-02T12:05:41.619Z,190
2017-09-02T12:06:41.986Z,190
2017-09-02T12:07:41.677Z,190
2017-09-02T12:08:42.041Z,195
2017-09-02T12:09:42.060Z,200
2017-09-02T12:10:56.711Z,245
2017-09-02T12:11:42.070Z,220
2017-09-02T12:12:42.112Z,195
2017-09-02T12:13:42.198Z,190
2017-09-02T12:14:42.174Z,190
2017-09-02T12:15:41.922Z,190
2017-09-02T12:16:56.524Z,190
2017-09-02T12:17:41.949Z,190
2017-09-02T12:18:42.269Z,190
2017-09-02T12:19:42.011Z,195
2017-09-02T12:20:42.027Z,195
2017-09-02T12:21:42.377Z,195
2017-09-02T12:22:42.418Z,200
2017-09-02T12:23:41.825Z,195
2017-09-02T12:24:42.129Z,195
2017-09-02T12:25:42.468Z,190
2017-09-02T12:26:42.518Z,195
2017-09-02T12:27:42.221Z,195
2017-09-02T12:28:42.260Z,200
2017-09-02T12:29:42.603Z,210
2017-09-02T12:30:42.623Z,215
2017-09-02T12:31:57.259Z,240
2017-09-02T12:32:56.976Z,240
2017-09-02T12:34:42.405Z,245
2017-09-02T12:35:57.369Z,230
2017-09-02T12:36:57.401Z,210
2017-09-02T12:37:42.798Z,215
2017-09-02T12:38:42.518Z,195
2017-09-02T12:39:57.153Z,200
2017-09-02T12:40:42.564Z,215
2017-09-02T12:41:42.905Z,215
2017-09-02T12:42:42.915Z,210
2017-09-02T12:43:42.980Z,200
2017-09-02T12:44:42.696Z,190
2017-09-02T12:45:43.077Z,185
2017-09-02T12:46:42.714Z,180
2017-09-02T12:47:42.810Z,180
2017-09-02T12:48:57.709Z,170
2017-09-02T12:49:43.127Z,175
2017-09-02T12:50:57.770Z,175
2017-09-02T12:51:43.187Z,175
2017-09-02T12:52:43.216Z,180
2017-09-02T12:54:42.978Z,180
2017-09-02T12:55:43.273Z,180
2017-09-02T12:56:43.310Z,180
2017-09-02T12:57:43.401Z,185
2017-09-02T12:58:43.073Z,185
2017-09-02T12:59:57.997Z,180
2017-09-02T13:00:43.489Z,180
2017-09-02T13:01:43.148Z,180
2017-09-02T13:02:43.805Z,175
2017-09-02T13:05:12.751Z,160
2017-09-02T13:05:43.540Z,165
2017-09-02T13:06:57.560Z,160
2017-09-02T13:07:43.687Z,160
2017-09-02T13:08:43.628Z,165
2017-09-02T13:09:43.675Z,160
2017-09-02T13:10:43.676Z,165
2017-09-02T13:11:58.341Z,165
2017-09-02T13:12:58.395Z,165
2017-09-02T13:13:43.763Z,165
2017-09-02T13:14:43.795Z,170
2017-09-02T13:15:43.832Z,170
2017-09-02T13:16:43.858Z,170
2017-09-02T13:17:43.552Z,170
2017-09-02T13:18:43.909Z,170
2017-09-02T13:19:58.524Z,170
2017-09-02T13:20:43.649Z,170
2017-09-02T13:21:43.991Z,170
2017-09-02T13:22:44.028Z,165
2017-09-02T13:23:58.656Z,165
2017-09-02T13:24:44.056Z,165
2017-09-02T13:25:44.092Z,165
2017-09-02T13:26:43.818Z,165
2017-09-02T13:27:44.160Z,160
2017-09-02T13:28:44.194Z,160
2017-09-02T13:29:44.179Z,165
2017-09-02T13:30:44.280Z,170
2017-09-02T13:31:43.931Z,175
2017-09-02T13:32:44.302Z,170
2017-09-02T13:33:44.326Z,160
2017-09-02T13:34:44.328Z,155
2017-09-02T13:35:44.026Z,150
2017-09-02T13:36:44.375Z,150
2017-09-02T13:37:44.096Z,160
2017-09-02T13:38:44.445Z,160
2017-09-02T13:39:44.477Z,155
2017-09-02T13:40:44.529Z,140
2017-09-02T13:41:44.535Z,140
2017-09-02T13:42:44.246Z,130
2017-09-02T13:43:44.584Z,125
2017-09-02T13:44:44.604Z,115
2017-09-02T13:45:44.625Z,110
2017-09-02T13:46:44.333Z,105
2017-09-02T13:47:44.375Z,100
2017-09-02T13:48:44.697Z,100
2017-09-02T13:49:44.422Z,95
2017-09-02T13:50:44.741Z,95
2017-09-02T13:51:59.422Z,90
2017-09-02T13:52:44.501Z,85
2017-09-02T13:53:44.844Z,85
2017-09-02T13:54:44.235Z,85
2017-09-02T13:55:44.901Z,80
2017-09-02T13:56:44.901Z,80
2017-09-02T13:57:45.002Z,80
2017-09-02T13:58:44.947Z,80
2017-09-02T13:59:45.005Z,80
2017-09-02T14:00:59.606Z,80
2017-09-02T14:01:45.064Z,80
2017-09-02T14:02:45.079Z,80
2017-09-02T14:03:44.794Z,80
2017-09-02T14:04:44.493Z,80
2017-09-02T14:05:44.837Z,80
2017-09-02T14:06:45.171Z,80
2017-09-02T14:07:59.821Z,80
2017-09-02T14:08:44.882Z,85
2017-09-02T14:09:45.250Z,90
2017-09-02T14:10:44.952Z,90
2017-09-02T14:11:45.372Z,95
2017-09-02T14:12:45.336Z,95
2017-09-02T14:13:59.725Z,100
2017-09-02T14:14:45.077Z,100
2017-09-02T14:15:45.091Z,100
2017-09-02T14:16:45.126Z,100
2017-09-02T14:17:45.150Z,105
2017-09-02T14:18:45.508Z,105
2017-09-02T14:19:45.585Z,110
2017-09-02T14:20:45.530Z,110
2017-09-02T14:22:00.193Z,110
2017-09-02T14:23:00.199Z,120
2017-09-02T14:24:45.652Z,110
2017-09-02T14:26:00.273Z,110
2017-09-02T14:27:00.311Z,110
2017-09-02T14:27:45.720Z,110
2017-09-02T14:28:45.735Z,110
2017-09-02T14:30:00.078Z,115
2017-09-02T14:31:00.383Z,110
2017-09-02T14:31:45.828Z,110
2017-09-02T14:32:45.839Z,110
2017-09-02T14:34:00.474Z,110
2017-09-02T14:35:00.515Z,115
2017-09-02T14:35:45.606Z,115
2017-09-02T14:36:45.644Z,115
2017-09-02T14:37:45.674Z,115
2017-09-02T14:40:00.009Z,115
2017-09-02T14:40:46.034Z,115
2017-09-02T14:42:00.685Z,115
2017-09-02T14:43:15.016Z,120
2017-09-02T14:43:45.848Z,120
2017-09-02T14:45:46.178Z,120
2017-09-02T14:46:46.183Z,120
2017-09-02T14:47:45.624Z,125
2017-09-02T14:49:00.227Z,125
2017-09-02T14:50:00.580Z,125
2017-09-02T14:50:45.970Z,130
2017-09-02T14:52:00.630Z,130
2017-09-02T14:53:45.754Z,130
2017-09-02T14:55:15.630Z,130
2017-09-02T14:55:45.802Z,130
2017-09-02T14:57:01.068Z,135
2017-09-02T14:57:46.487Z,135
2017-09-02T14:58:46.191Z,135
2017-09-02T14:59:46.238Z,140
2017-09-02T15:00:46.562Z,145